Time;durP1;ratioP1;P1;durP2;ratioP2;P2;SDS_P1;SDS_P2;PMS_P1;PMS_P2;Temp;Humidity;BMP_temperature;BMP_pressure;BME280_temperature;BME280_humidity;BME280_pressure;Samples;Min_cycle;Max_cycle;Signal;HPM_P1;HPM_P2
2021/06/02 00:00:05;;;;;;;2.00;1.47;;;;;;;;;;4991453;28;20504;-67
2021/06/02 00:02:32;;;;;;;1.73;1.23;;;;;;;;;;4993361;28;21024;-67
2021/06/02 00:05:01;;;;;;;2.67;1.60;;;;;;;;;;4991814;28;20456;-67
2021/06/02 00:07:28;;;;;;;1.83;1.63;;;;;;;;;;4992355;28;20455;-66
2021/06/02 00:09:56;;;;;;;2.70;1.40;;;;;;;;;;4992628;28;20593;-67
2021/06/02 00:12:23;;;;;;;3.53;1.40;;;;;;;;;;4993385;28;20457;-66
2021/06/02 00:14:50;;;;;;;2.67;1.47;;;;;;;;;;4992355;28;20804;-67
2021/06/02 00:17:17;;;;;;;2.60;1.30;;;;;;;;;;4992686;28;20486;-66
2021/06/02 00:19:44;;;;;;;1.60;1.33;;;;;;;;;;4983557;28;20475;-66
2021/06/02 00:22:11;;;;;;;1.70;1.10;;;;;;;;;;4976466;28;20806;-66
2021/06/02 00:24:38;;;;;;;1.57;1.27;;;;;;;;;;4990477;28;20461;-66
2021/06/02 00:27:10;;;;;;;1.83;1.30;;;;;;;;;;4991376;28;20942;-66
2021/06/02 00:29:37;;;;;;;1.60;1.30;;;;;;;;;;4985521;28;20506;-66
2021/06/02 00:32:05;;;;;;;2.70;1.30;;;;;;;;;;4987539;28;20809;-66
2021/06/02 00:34:31;;;;;;;2.33;0.90;;;;;;;;;;4988289;28;20458;-66
2021/06/02 00:37:00;;;;;;;2.17;1.23;;;;;;;;;;4991667;28;21005;-65
2021/06/02 00:39:26;;;;;;;1.80;1.13;;;;;;;;;;4992119;28;20529;-65
2021/06/02 00:41:54;;;;;;;1.47;1.10;;;;;;;;;;4993066;28;20714;-66
2021/06/02 00:44:23;;;;;;;2.57;1.20;;;;;;;;;;4988271;28;20447;-66
2021/06/02 00:46:50;;;;;;;3.00;1.10;;;;;;;;;;4973024;28;20447;-68
2021/06/02 00:49:22;;;;;;;1.60;1.00;;;;;;;;;;4981326;28;20969;-65
2021/06/02 00:51:49;;;;;;;2.60;1.33;;;;;;;;;;4973476;28;20436;-65
2021/06/02 00:54:16;;;;;;;3.60;1.00;;;;;;;;;;4988873;28;20450;-66
2021/06/02 00:56:43;;;;;;;1.90;1.10;;;;;;;;;;4991360;28;20482;-65
2021/06/02 00:59:11;;;;;;;1.87;0.90;;;;;;;;;;4988263;28;20827;-66
2021/06/02 01:01:39;;;;;;;1.57;1.10;;;;;;;;;;4992133;28;20848;-66
2021/06/02 01:04:06;;;;;;;1.67;1.00;;;;;;;;;;4991117;28;20454;-66
2021/06/02 01:06:34;;;;;;;1.30;0.90;;;;;;;;;;4990201;28;20833;-66
2021/06/02 01:09:02;;;;;;;1.63;1.00;;;;;;;;;;4987722;28;21014;-66
2021/06/02 01:11:29;;;;;;;1.37;0.90;;;;;;;;;;4992128;28;20480;-67
2021/06/02 01:13:57;;;;;;;1.63;0.93;;;;;;;;;;4991175;28;20845;-66
2021/06/02 01:16:26;;;;;;;5.23;1.00;;;;;;;;;;4991703;28;20892;-66
2021/06/02 01:18:54;;;;;;;3.43;1.20;;;;;;;;;;4991151;28;20451;-66
2021/06/02 01:21:22;;;;;;;1.20;0.93;;;;;;;;;;4992054;28;20471;-67
2021/06/02 01:23:52;;;;;;;1.40;1.00;;;;;;;;;;4990214;28;20877;-66
2021/06/02 01:26:19;;;;;;;2.30;1.00;;;;;;;;;;4990767;28;20958;-66
2021/06/02 01:28:46;;;;;;;3.00;1.00;;;;;;;;;;4991654;28;20963;-66
2021/06/02 01:31:15;;;;;;;1.77;0.80;;;;;;;;;;4991888;28;20486;-66
2021/06/02 01:33:49;;;;;;;2.07;1.00;;;;;;;;;;4991871;28;20461;-66
2021/06/02 01:36:22;;;;;;;2.83;1.20;;;;;;;;;;4991066;28;20479;-67
2021/06/02 01:39:08;;;;;;;2.13;1.00;;;;;;;;;;4984742;28;20451;-66
2021/06/02 01:41:44;;;;;;;2.00;0.90;;;;;;;;;;4985542;28;20486;-67
2021/06/02 01:44:29;;;;;;;1.50;0.70;;;;;;;;;;4989975;28;20469;-66
2021/06/02 01:47:21;;;;;;;2.00;0.90;;;;;;;;;;4990338;28;20810;-66
2021/06/02 01:50:01;;;;;;;1.83;1.20;;;;;;;;;;4987069;28;21001;-66
2021/06/02 01:52:46;;;;;;;1.70;1.07;;;;;;;;;;4991605;28;20438;-66
2021/06/02 01:55:34;;;;;;;1.30;1.10;;;;;;;;;;4980644;28;20447;-66
2021/06/02 01:58:07;;;;;;;2.33;1.03;;;;;;;;;;4984122;28;20533;-66
2021/06/02 02:00:44;;;;;;;1.60;1.00;;;;;;;;;;4994434;28;20536;-65
2021/06/02 02:03:29;;;;;;;2.63;1.10;;;;;;;;;;4976246;28;20457;-66
2021/06/02 02:06:18;;;;;;;1.50;1.00;;;;;;;;;;4991453;28;20520;-67
2021/06/02 02:08:46;;;;;;;1.77;1.00;;;;;;;;;;4995874;28;20486;-66
2021/06/02 02:11:33;;;;;;;2.90;1.20;;;;;;;;;;4980547;28;21071;-67
2021/06/02 02:14:17;;;;;;;1.57;0.90;;;;;;;;;;4992118;28;20469;-67
2021/06/02 02:16:54;;;;;;;2.50;1.03;;;;;;;;;;4982567;28;20482;-67
2021/06/02 02:19:28;;;;;;;3.87;1.30;;;;;;;;;;4989472;28;20443;-66
2021/06/02 02:21:57;;;;;;;1.60;1.00;;;;;;;;;;4983497;28;20457;-67
2021/06/02 02:24:41;;;;;;;1.90;0.90;;;;;;;;;;4986065;28;20462;-68
2021/06/02 02:27:18;;;;;;;2.07;1.13;;;;;;;;;;4984343;28;20470;-65
2021/06/02 02:29:46;;;;;;;1.63;1.13;;;;;;;;;;4993118;28;20788;-66
2021/06/02 02:32:25;;;;;;;1.50;1.10;;;;;;;;;;4995075;28;20466;-66
2021/06/02 02:35:19;;;;;;;2.67;1.40;;;;;;;;;;4994720;28;20473;-67
2021/06/02 02:37:48;;;;;;;1.97;1.00;;;;;;;;;;4959762;28;20494;-67
2021/06/02 02:40:21;;;;;;;3.70;1.40;;;;;;;;;;4989873;28;20482;-66
2021/06/02 02:42:51;;;;;;;1.70;1.13;;;;;;;;;;4995096;28;20505;-66
2021/06/02 02:45:23;;;;;;;1.80;1.10;;;;;;;;;;4993985;28;20451;-66
2021/06/02 02:48:00;;;;;;;1.73;1.13;;;;;;;;;;4994145;28;20455;-66
2021/06/02 02:50:32;;;;;;;2.40;1.17;;;;;;;;;;4993969;28;20477;-66
2021/06/02 02:53:02;;;;;;;1.90;1.10;;;;;;;;;;4994349;28;20458;-66
2021/06/02 02:55:30;;;;;;;2.40;1.20;;;;;;;;;;4993878;28;20460;-66
2021/06/02 02:57:58;;;;;;;2.30;1.00;;;;;;;;;;4991049;28;20482;-66
2021/06/02 03:00:32;;;;;;;2.90;1.20;;;;;;;;;;4983100;28;20466;-66
2021/06/02 03:03:05;;;;;;;2.30;1.13;;;;;;;;;;4991389;28;21729;-66
2021/06/02 03:05:33;;;;;;;1.67;1.10;;;;;;;;;;4974463;28;20444;-66
2021/06/02 03:08:07;;;;;;;3.50;1.20;;;;;;;;;;4986439;28;20459;-66
2021/06/02 03:10:35;;;;;;;4.20;1.17;;;;;;;;;;5020672;23;20491;-71
2021/06/02 03:13:04;;;;;;;2.10;1.07;;;;;;;;;;4996431;28;20485;-71
2021/06/02 03:15:42;;;;;;;2.03;1.20;;;;;;;;;;4990397;28;20471;-72
2021/06/02 03:18:16;;;;;;;2.07;1.10;;;;;;;;;;4981808;28;20485;-71
2021/06/02 03:20:47;;;;;;;1.40;1.07;;;;;;;;;;4995346;28;20479;-70
2021/06/02 03:23:23;;;;;;;1.90;1.13;;;;;;;;;;4995324;28;20443;-70
2021/06/02 03:25:53;;;;;;;1.53;1.00;;;;;;;;;;4993976;28;20446;-70
2021/06/02 03:28:32;;;;;;;3.43;1.30;;;;;;;;;;4994688;28;20451;-70
2021/06/02 03:31:01;;;;;;;2.40;1.20;;;;;;;;;;4979496;28;20845;-70
2021/06/02 03:33:38;;;;;;;1.40;1.10;;;;;;;;;;4994820;28;20486;-70
2021/06/02 03:36:11;;;;;;;2.37;1.33;;;;;;;;;;4994415;28;20934;-70
2021/06/02 03:38:43;;;;;;;1.63;1.27;;;;;;;;;;4994413;28;20961;-70
2021/06/02 03:41:18;;;;;;;3.50;1.03;;;;;;;;;;4994668;28;20993;-70
2021/06/02 03:43:47;;;;;;;1.40;1.17;;;;;;;;;;4994769;28;20437;-70
2021/06/02 03:46:20;;;;;;;2.13;1.40;;;;;;;;;;4994128;28;20818;-71
2021/06/02 03:48:55;;;;;;;3.03;1.23;;;;;;;;;;4996124;28;20447;-72
2021/06/02 03:51:26;;;;;;;1.80;1.40;;;;;;;;;;4999587;28;20489;-70
2021/06/02 03:54:08;;;;;;;2.83;1.20;;;;;;;;;;5001949;28;20478;-70
2021/06/02 03:56:44;;;;;;;2.17;1.20;;;;;;;;;;4995207;28;20482;-70
2021/06/02 03:59:17;;;;;;;2.63;1.37;;;;;;;;;;4994267;28;20819;-71
2021/06/02 04:01:49;;;;;;;1.73;1.20;;;;;;;;;;4993815;28;20479;-71
2021/06/02 04:04:22;;;;;;;4.13;1.50;;;;;;;;;;4995088;28;20439;-71
2021/06/02 04:06:52;;;;;;;2.47;1.30;;;;;;;;;;4993561;28;20455;-70
2021/06/02 04:09:23;;;;;;;2.00;1.30;;;;;;;;;;4995306;28;20458;-71
2021/06/02 04:11:52;;;;;;;1.40;1.07;;;;;;;;;;4993837;28;21013;-71
2021/06/02 04:14:29;;;;;;;4.30;1.73;;;;;;;;;;4994284;28;20458;-70
2021/06/02 04:16:56;;;;;;;2.13;1.33;;;;;;;;;;4992756;28;20478;-70
2021/06/02 04:19:27;;;;;;;2.10;1.27;;;;;;;;;;4993183;28;20450;-70
2021/06/02 04:21:55;;;;;;;2.03;1.37;;;;;;;;;;4993722;28;20494;-70
2021/06/02 04:24:24;;;;;;;1.67;1.30;;;;;;;;;;4994413;28;20485;-70
2021/06/02 04:26:51;;;;;;;2.63;1.30;;;;;;;;;;4992992;28;20451;-70
2021/06/02 04:29:19;;;;;;;4.50;1.50;;;;;;;;;;4993576;28;20462;-71
2021/06/02 04:31:53;;;;;;;2.37;1.30;;;;;;;;;;4993500;28;20486;-71
2021/06/02 04:34:20;;;;;;;1.77;1.27;;;;;;;;;;4994208;28;20450;-71
2021/06/02 04:36:49;;;;;;;2.73;1.40;;;;;;;;;;4992610;28;20483;-70
2021/06/02 04:39:15;;;;;;;1.87;1.30;;;;;;;;;;4993969;28;20430;-70
2021/06/02 04:41:42;;;;;;;6.80;1.90;;;;;;;;;;4993369;28;20474;-69
2021/06/02 04:44:13;;;;;;;4.00;1.63;;;;;;;;;;4993734;28;20455;-70
2021/06/02 04:46:40;;;;;;;3.43;1.93;;;;;;;;;;4993149;28;20442;-71
2021/06/02 04:49:06;;;;;;;4.10;3.20;;;;;;;;;;4993324;28;20957;-69
2021/06/02 04:51:59;;;;;;;3.57;3.37;;;;;;;;;;4992610;28;20478;-69
2021/06/02 04:54:42;;;;;;;5.43;4.00;;;;;;;;;;4973662;28;20481;-67
2021/06/02 04:57:27;;;;;;;4.87;4.37;;;;;;;;;;4979238;28;20548;-67
2021/06/02 05:00:11;;;;;;;4.90;4.40;;;;;;;;;;4992209;28;20451;-68
2021/06/02 05:02:52;;;;;;;5.77;4.90;;;;;;;;;;4992106;28;20527;-68
2021/06/02 05:05:23;;;;;;;5.03;4.63;;;;;;;;;;4969880;28;20455;-67
2021/06/02 05:08:08;;;;;;;5.53;5.03;;;;;;;;;;4992412;28;20446;-68
2021/06/02 05:10:54;;;;;;;6.00;5.13;;;;;;;;;;4992998;28;20540;-67
2021/06/02 05:13:36;;;;;;;9.00;4.67;;;;;;;;;;4992183;28;20477;-68
2021/06/02 05:16:21;;;;;;;5.90;5.00;;;;;;;;;;4991833;28;20830;-69
2021/06/02 05:19:15;;;;;;;4.97;4.57;;;;;;;;;;4980565;28;20443;-68
2021/06/02 05:22:05;;;;;;;5.47;4.97;;;;;;;;;;4989758;28;20470;-70
2021/06/02 05:24:50;;;;;;;5.33;4.83;;;;;;;;;;4992076;28;20458;-70
2021/06/02 05:27:35;;;;;;;5.97;4.90;;;;;;;;;;4972443;28;20586;-69
2021/06/02 05:30:25;;;;;;;5.80;5.30;;;;;;;;;;4991245;28;20458;-69
2021/06/02 05:33:06;;;;;;;6.00;5.50;;;;;;;;;;4992104;28;20963;-70
2021/06/02 05:35:48;;;;;;;5.27;4.77;;;;;;;;;;4991313;28;20453;-70
2021/06/02 05:38:25;;;;;;;5.50;5.10;;;;;;;;;;4991830;28;21178;-71
2021/06/02 05:41:01;;;;;;;5.33;4.83;;;;;;;;;;4992144;28;20474;-70
2021/06/02 05:43:48;;;;;;;6.50;3.47;;;;;;;;;;4991667;28;20822;-71
2021/06/02 05:46:29;;;;;;;8.63;3.40;;;;;;;;;;4978529;28;20533;-71
2021/06/02 05:49:07;;;;;;;8.10;2.80;;;;;;;;;;4992330;28;20536;-71
2021/06/02 05:51:54;;;;;;;4.63;2.50;;;;;;;;;;4992808;28;20489;-74
2021/06/02 05:54:45;;;;;;;4.13;2.30;;;;;;;;;;4975614;28;20450;-74
2021/06/02 05:57:26;;;;;;;2.50;1.93;;;;;;;;;;4992230;28;20494;-74
2021/06/02 06:00:08;;;;;;;3.93;2.03;;;;;;;;;;4993179;28;20450;-73
2021/06/02 06:02:53;;;;;;;3.33;1.80;;;;;;;;;;4990852;28;20455;-73
2021/06/02 06:05:33;;;;;;;4.27;1.83;;;;;;;;;;4991458;28;20588;-74
2021/06/02 06:08:23;;;;;;;5.50;2.27;;;;;;;;;;4992544;28;20865;-74
2021/06/02 06:11:08;;;;;;;2.37;1.83;;;;;;;;;;4992560;28;20481;-74
2021/06/02 06:13:50;;;;;;;2.17;1.77;;;;;;;;;;4992564;28;20465;-73
2021/06/02 06:16:28;;;;;;;5.60;2.00;;;;;;;;;;4992348;28;20826;-73
2021/06/02 06:19:13;;;;;;;3.20;2.03;;;;;;;;;;4982631;28;20938;-73
2021/06/02 06:22:06;;;;;;;3.10;2.20;;;;;;;;;;4975015;28;20478;-73
2021/06/02 06:24:37;;;;;;;2.37;1.77;;;;;;;;;;4993016;28;20799;-73
2021/06/02 06:27:06;;;;;;;2.90;1.87;;;;;;;;;;4991743;28;20450;-74
2021/06/02 06:29:36;;;;;;;2.27;2.00;;;;;;;;;;4992259;28;20471;-74
2021/06/02 06:32:04;;;;;;;3.73;2.00;;;;;;;;;;4991580;28;20492;-73
2021/06/02 06:34:33;;;;;;;2.67;2.10;;;;;;;;;;4992970;28;20449;-73
2021/06/02 06:37:01;;;;;;;3.00;2.00;;;;;;;;;;4991929;28;20482;-71
2021/06/02 06:39:33;;;;;;;4.37;2.50;;;;;;;;;;4993095;28;20447;-73
2021/06/02 06:42:02;;;;;;;2.43;1.83;;;;;;;;;;4993836;28;20479;-74
2021/06/02 06:44:30;;;;;;;2.40;1.83;;;;;;;;;;4996270;28;20512;-74
2021/06/02 06:46:57;;;;;;;3.00;1.97;;;;;;;;;;4990381;28;20447;-72
2021/06/02 06:49:24;;;;;;;2.20;1.83;;;;;;;;;;4996377;28;20462;-74
2021/06/02 06:51:52;;;;;;;2.20;1.90;;;;;;;;;;4995378;28;20497;-73
2021/06/02 06:54:21;;;;;;;8.50;3.53;;;;;;;;;;4995352;28;21209;-68
2021/06/02 06:56:47;;;;;;;7.60;3.20;;;;;;;;;;4993878;28;20817;-67
2021/06/02 06:59:17;;;;;;;6.13;3.40;;;;;;;;;;4995180;28;20458;-68
2021/06/02 07:01:44;;;;;;;8.40;2.60;;;;;;;;;;4994241;28;20961;-67
2021/06/02 07:04:11;;;;;;;7.10;2.97;;;;;;;;;;4994981;28;20458;-67
2021/06/02 07:06:38;;;;;;;2.63;2.43;;;;;;;;;;4994551;28;20845;-67
2021/06/02 07:09:05;;;;;;;3.20;2.47;;;;;;;;;;4995213;28;20461;-67
2021/06/02 07:11:37;;;;;;;6.43;3.20;;;;;;;;;;4995102;28;20478;-66
2021/06/02 07:14:04;;;;;;;8.57;2.57;;;;;;;;;;4995260;28;20493;-67
2021/06/02 07:16:32;;;;;;;5.60;2.33;;;;;;;;;;4998179;28;20469;-69
2021/06/02 07:19:01;;;;;;;21.13;3.93;;;;;;;;;;4998059;28;20459;-69
2021/06/02 07:21:29;;;;;;;4.97;2.43;;;;;;;;;;4995584;28;20606;-69
2021/06/02 07:23:56;;;;;;;6.80;2.43;;;;;;;;;;4994876;28;20454;-68
2021/06/02 07:26:23;;;;;;;3.50;2.47;;;;;;;;;;4994487;28;20446;-72
2021/06/02 07:28:49;;;;;;;2.70;2.40;;;;;;;;;;4995041;28;20858;-69
2021/06/02 07:31:16;;;;;;;5.40;2.63;;;;;;;;;;4995234;28;20474;-69
2021/06/02 07:33:44;;;;;;;6.30;2.90;;;;;;;;;;4994988;28;20494;-68
2021/06/02 07:36:12;;;;;;;4.13;2.90;;;;;;;;;;4994243;28;20497;-69
2021/06/02 07:38:40;;;;;;;3.73;2.90;;;;;;;;;;4989467;28;20482;-68
2021/06/02 07:41:07;;;;;;;3.10;2.63;;;;;;;;;;4994508;28;20474;-68
2021/06/02 07:43:33;;;;;;;5.80;2.50;;;;;;;;;;4993302;28;20470;-68
2021/06/02 07:46:00;;;;;;;3.00;2.43;;;;;;;;;;4994192;28;20446;-68
2021/06/02 07:48:27;;;;;;;3.50;2.33;;;;;;;;;;4994656;28;20821;-69
2021/06/02 07:50:55;;;;;;;4.57;2.80;;;;;;;;;;4998531;28;20470;-68
2021/06/02 07:53:21;;;;;;;3.73;2.33;;;;;;;;;;4998109;28;20451;-68
2021/06/02 07:55:48;;;;;;;6.90;2.47;;;;;;;;;;4993178;28;20875;-68
2021/06/02 07:58:15;;;;;;;3.43;2.30;;;;;;;;;;4993921;28;21462;-70
2021/06/02 08:00:41;;;;;;;8.07;2.30;;;;;;;;;;4995293;28;20476;-68
2021/06/02 08:03:08;;;;;;;11.50;3.10;;;;;;;;;;4994270;28;20458;-69
2021/06/02 08:05:35;;;;;;;11.07;3.13;;;;;;;;;;4994218;28;20968;-70
2021/06/02 08:08:03;;;;;;;6.00;2.73;;;;;;;;;;4993574;28;20457;-68
2021/06/02 08:10:30;;;;;;;20.53;3.27;;;;;;;;;;4994301;28;20540;-70
2021/06/02 08:12:56;;;;;;;18.77;4.20;;;;;;;;;;4994188;28;20542;-69
2021/06/02 08:15:23;;;;;;;10.97;3.50;;;;;;;;;;4993954;28;20457;-68
2021/06/02 08:17:50;;;;;;;5.87;3.10;;;;;;;;;;4993158;28;20491;-68
2021/06/02 08:20:17;;;;;;;7.53;2.70;;;;;;;;;;4994409;28;20457;-68
2021/06/02 08:22:44;;;;;;;13.70;2.80;;;;;;;;;;4994374;28;20454;-69
2021/06/02 08:25:13;;;;;;;5.10;2.80;;;;;;;;;;4994945;28;20447;-68
2021/06/02 08:27:40;;;;;;;5.90;2.30;;;;;;;;;;4992285;28;20457;-69
2021/06/02 08:30:07;;;;;;;7.87;2.80;;;;;;;;;;4988546;28;20465;-68
2021/06/02 08:32:34;;;;;;;3.23;2.00;;;;;;;;;;4994101;28;20439;-67
2021/06/02 08:35:00;;;;;;;10.50;3.83;;;;;;;;;;4994331;28;20461;-68
2021/06/02 08:37:27;;;;;;;4.13;2.60;;;;;;;;;;4991970;28;20482;-67
2021/06/02 08:39:54;;;;;;;7.27;3.43;;;;;;;;;;4993591;28;20453;-69
2021/06/02 08:42:22;;;;;;;3.40;2.13;;;;;;;;;;4993466;28;21060;-68
2021/06/02 08:44:49;;;;;;;3.20;2.23;;;;;;;;;;4993455;28;20529;-68
2021/06/02 08:47:15;;;;;;;8.63;3.07;;;;;;;;;;4993065;28;20589;-68
2021/06/02 08:49:42;;;;;;;3.73;2.73;;;;;;;;;;4992975;28;20486;-68
2021/06/02 08:52:09;;;;;;;3.10;2.80;;;;;;;;;;4992081;28;20500;-67
2021/06/02 08:54:36;;;;;;;3.80;2.97;;;;;;;;;;4992866;28;20465;-68
2021/06/02 08:57:03;;;;;;;4.07;2.40;;;;;;;;;;4992360;28;21022;-67
2021/06/02 08:59:32;;;;;;;3.10;2.27;;;;;;;;;;4992767;28;20458;-67
2021/06/02 09:01:59;;;;;;;3.10;2.80;;;;;;;;;;4993274;28;20478;-68
2021/06/02 09:04:26;;;;;;;2.80;2.13;;;;;;;;;;4993351;28;20505;-68
2021/06/02 09:06:53;;;;;;;2.90;2.60;;;;;;;;;;4993122;28;20502;-67
2021/06/02 09:09:20;;;;;;;3.33;2.23;;;;;;;;;;4993763;28;20851;-69
2021/06/02 09:11:48;;;;;;;9.43;3.27;;;;;;;;;;5010316;23;20585;-65
2021/06/02 09:14:21;;;;;;;8.77;3.20;;;;;;;;;;4992601;28;20453;-64
2021/06/02 09:16:52;;;;;;;13.37;3.70;;;;;;;;;;4993058;28;20450;-66
2021/06/02 09:19:32;;;;;;;12.07;3.20;;;;;;;;;;4992820;28;20460;-68
2021/06/02 09:21:59;;;;;;;9.73;3.67;;;;;;;;;;4982483;28;20479;-66
2021/06/02 09:24:41;;;;;;;7.33;2.93;;;;;;;;;;4972904;28;20467;-68
2021/06/02 09:27:07;;;;;;;5.80;2.60;;;;;;;;;;4973706;28;20791;-69
2021/06/02 09:29:48;;;;;;;6.20;2.77;;;;;;;;;;4985006;28;20451;-69
2021/06/02 09:32:18;;;;;;;9.23;2.73;;;;;;;;;;4975248;28;20479;-67
2021/06/02 09:34:44;;;;;;;18.17;2.80;;;;;;;;;;4982023;28;20451;-69
2021/06/02 09:37:11;;;;;;;3.70;2.70;;;;;;;;;;4971348;28;20485;-67
2021/06/02 09:39:41;;;;;;;4.37;2.20;;;;;;;;;;4971166;28;20464;-69
2021/06/02 09:42:18;;;;;;;2.97;2.10;;;;;;;;;;4968686;28;20478;-69
2021/06/02 09:45:00;;;;;;;5.00;2.40;;;;;;;;;;4973269;28;20455;-70
2021/06/02 09:47:40;;;;;;;4.80;2.63;;;;;;;;;;4962030;28;20440;-70
2021/06/02 09:50:07;;;;;;;6.20;2.80;;;;;;;;;;4971830;28;21014;-69
2021/06/02 09:52:41;;;;;;;4.07;2.40;;;;;;;;;;4972474;28;20522;-68
2021/06/02 09:55:11;;;;;;;3.57;2.20;;;;;;;;;;4982341;28;20582;-68
2021/06/02 09:57:38;;;;;;;3.10;2.30;;;;;;;;;;4986449;28;20486;-69
2021/06/02 10:00:05;;;;;;;6.40;2.33;;;;;;;;;;4972777;28;20451;-69
2021/06/02 10:02:33;;;;;;;3.87;2.40;;;;;;;;;;4972367;28;20714;-68
2021/06/02 10:05:00;;;;;;;4.00;2.43;;;;;;;;;;4972378;28;20826;-68
2021/06/02 10:07:27;;;;;;;5.93;2.17;;;;;;;;;;4982874;28;20458;-69
2021/06/02 10:09:54;;;;;;;5.07;2.43;;;;;;;;;;4974153;28;20470;-68
2021/06/02 10:12:21;;;;;;;4.90;2.13;;;;;;;;;;4972586;28;20483;-68
2021/06/02 10:14:54;;;;;;;4.47;1.90;;;;;;;;;;4965330;28;21033;-69
2021/06/02 10:17:27;;;;;;;3.00;2.00;;;;;;;;;;4974488;28;21007;-67
2021/06/02 10:19:55;;;;;;;3.40;2.07;;;;;;;;;;4975589;28;20455;-68
2021/06/02 10:22:23;;;;;;;2.63;2.27;;;;;;;;;;4973749;28;20625;-69
2021/06/02 10:24:51;;;;;;;2.73;2.20;;;;;;;;;;4979505;28;20475;-69
2021/06/02 10:27:19;;;;;;;2.30;2.00;;;;;;;;;;4975063;28;20562;-69
2021/06/02 10:29:46;;;;;;;2.67;2.30;;;;;;;;;;4974067;28;20467;-68
2021/06/02 10:32:12;;;;;;;3.00;2.53;;;;;;;;;;4972622;28;20494;-68
2021/06/02 10:34:39;;;;;;;2.63;2.10;;;;;;;;;;4969718;28;20832;-68
2021/06/02 10:37:09;;;;;;;3.20;2.10;;;;;;;;;;4979021;28;20497;-68
2021/06/02 10:39:36;;;;;;;2.40;2.00;;;;;;;;;;4974694;28;20467;-69
2021/06/02 10:42:05;;;;;;;2.37;2.17;;;;;;;;;;4975190;28;20891;-69
2021/06/02 10:44:33;;;;;;;2.40;2.20;;;;;;;;;;4974924;28;20470;-69
2021/06/02 10:47:01;;;;;;;3.40;2.23;;;;;;;;;;4973151;28;20512;-69
2021/06/02 10:49:29;;;;;;;2.90;2.17;;;;;;;;;;4975480;28;20486;-68
2021/06/02 10:51:56;;;;;;;3.17;2.10;;;;;;;;;;4973879;28;20561;-68
2021/06/02 10:54:34;;;;;;;2.13;1.93;;;;;;;;;;4984459;28;20461;-69
2021/06/02 10:57:08;;;;;;;2.10;1.90;;;;;;;;;;4990246;28;20486;-69
2021/06/02 10:59:35;;;;;;;2.03;1.83;;;;;;;;;;4994365;28;20930;-69
2021/06/02 11:02:03;;;;;;;2.17;1.97;;;;;;;;;;4986006;28;21084;-69
2021/06/02 11:04:30;;;;;;;2.50;2.10;;;;;;;;;;4970955;28;20478;-69
2021/06/02 11:07:13;;;;;;;2.23;2.00;;;;;;;;;;4974484;28;20546;-69
2021/06/02 11:09:53;;;;;;;2.33;2.10;;;;;;;;;;4975187;28;20458;-68
2021/06/02 11:12:19;;;;;;;5.53;2.57;;;;;;;;;;4975748;28;20490;-68
2021/06/02 11:14:46;;;;;;;2.53;2.30;;;;;;;;;;4975582;28;20924;-67
2021/06/02 11:17:14;;;;;;;2.33;2.00;;;;;;;;;;4973672;28;20459;-69
2021/06/02 11:19:42;;;;;;;3.17;2.47;;;;;;;;;;4974951;28;20505;-69
2021/06/02 11:22:09;;;;;;;3.40;2.53;;;;;;;;;;4974685;28;20533;-67
2021/06/02 11:24:37;;;;;;;2.30;2.10;;;;;;;;;;4976262;28;20510;-68
2021/06/02 11:27:37;;;;;;;3.00;2.20;;;;;;;;;;4981761;28;20550;-67
2021/06/02 11:30:28;;;;;;;4.53;2.63;;;;;;;;;;4937165;29;20444;-67
2021/06/02 11:32:58;;;;;;;3.63;2.70;;;;;;;;;;4935513;29;20898;-68
2021/06/02 11:35:43;;;;;;;3.70;2.30;;;;;;;;;;4959158;28;20494;-67
2021/06/02 11:38:10;;;;;;;4.37;2.40;;;;;;;;;;4974440;28;20491;-67
2021/06/02 11:40:36;;;;;;;3.10;2.37;;;;;;;;;;4974694;28;20931;-67
2021/06/02 11:43:03;;;;;;;3.10;2.53;;;;;;;;;;4974563;28;20479;-67
2021/06/02 11:45:29;;;;;;;3.07;2.87;;;;;;;;;;4974104;28;20459;-68
2021/06/02 11:48:01;;;;;;;3.53;2.77;;;;;;;;;;4971753;28;20456;-69
2021/06/02 11:50:27;;;;;;;3.07;2.77;;;;;;;;;;4966463;28;20812;-67
2021/06/02 11:52:55;;;;;;;5.60;2.60;;;;;;;;;;4974168;28;20490;-67
2021/06/02 11:55:21;;;;;;;3.30;2.77;;;;;;;;;;4974182;28;20447;-68
2021/06/02 11:57:49;;;;;;;3.30;2.53;;;;;;;;;;4973442;28;20490;-68
2021/06/02 12:00:17;;;;;;;4.60;3.00;;;;;;;;;;4974412;28;20451;-67
2021/06/02 12:02:44;;;;;;;3.33;2.40;;;;;;;;;;4974556;28;20476;-68
2021/06/02 12:05:16;;;;;;;3.00;2.70;;;;;;;;;;4973724;28;20459;-67
2021/06/02 12:07:46;;;;;;;3.07;2.10;;;;;;;;;;4973459;28;20942;-67
2021/06/02 12:10:12;;;;;;;5.60;3.03;;;;;;;;;;4974066;28;20453;-67
2021/06/02 12:12:40;;;;;;;2.70;2.37;;;;;;;;;;4973412;28;20506;-68
2021/06/02 12:15:07;;;;;;;4.77;2.90;;;;;;;;;;4974146;28;20451;-67
2021/06/02 12:17:34;;;;;;;3.97;2.67;;;;;;;;;;4972628;28;20490;-67
2021/06/02 12:20:02;;;;;;;4.57;2.63;;;;;;;;;;4973746;28;20951;-68
2021/06/02 12:22:30;;;;;;;5.33;2.93;;;;;;;;;;4973616;28;20533;-68
2021/06/02 12:25:04;;;;;;;3.80;2.90;;;;;;;;;;4973765;28;20455;-67
2021/06/02 12:27:37;;;;;;;5.27;3.10;;;;;;;;;;4972865;28;20466;-67
2021/06/02 12:30:05;;;;;;;3.60;2.63;;;;;;;;;;4973771;28;20466;-68
2021/06/02 12:32:42;;;;;;;3.40;3.10;;;;;;;;;;4973557;28;20467;-68
2021/06/02 12:35:23;;;;;;;3.23;2.90;;;;;;;;;;4973544;28;20440;-67
2021/06/02 12:37:58;;;;;;;3.43;3.07;;;;;;;;;;4974101;28;20476;-67
2021/06/02 12:40:25;;;;;;;3.50;2.47;;;;;;;;;;4972559;28;20443;-67
2021/06/02 12:42:51;;;;;;;4.10;3.07;;;;;;;;;;4973164;28;20472;-67
2021/06/02 12:45:21;;;;;;;2.90;2.57;;;;;;;;;;4972953;28;21058;-66
2021/06/02 12:47:48;;;;;;;5.03;3.50;;;;;;;;;;4972872;28;21065;-68
2021/06/02 12:50:33;;;;;;;3.60;2.60;;;;;;;;;;4973502;28;20457;-68
2021/06/02 12:53:01;;;;;;;3.47;3.17;;;;;;;;;;4973684;28;20475;-67
2021/06/02 12:55:28;;;;;;;3.00;2.70;;;;;;;;;;4977078;28;20489;-67
2021/06/02 12:57:58;;;;;;;4.57;2.90;;;;;;;;;;4972660;28;20893;-67
2021/06/02 13:00:24;;;;;;;4.87;2.90;;;;;;;;;;4971446;28;20521;-68
2021/06/02 13:02:51;;;;;;;3.33;3.03;;;;;;;;;;4966065;28;20496;-69
2021/06/02 13:05:18;;;;;;;3.37;3.07;;;;;;;;;;4972660;28;20530;-67
2021/06/02 13:07:44;;;;;;;4.57;3.10;;;;;;;;;;4971393;28;20466;-68
2021/06/02 13:10:13;;;;;;;6.43;3.40;;;;;;;;;;4971250;28;20459;-67
2021/06/02 13:12:49;;;;;;;3.43;3.13;;;;;;;;;;4980625;28;20486;-66
2021/06/02 13:15:22;;;;;;;3.83;3.43;;;;;;;;;;4971781;28;20804;-66
2021/06/02 13:17:49;;;;;;;3.60;3.30;;;;;;;;;;4968965;28;20503;-66
2021/06/02 13:20:28;;;;;;;5.30;2.93;;;;;;;;;;4959640;28;20467;-67
2021/06/02 13:23:06;;;;;;;4.13;3.07;;;;;;;;;;4966984;28;20483;-67
2021/06/02 13:25:34;;;;;;;3.90;3.27;;;;;;;;;;4973676;28;20466;-68
2021/06/02 13:28:01;;;;;;;3.77;3.43;;;;;;;;;;4978286;28;20464;-68
2021/06/02 13:30:36;;;;;;;3.80;3.20;;;;;;;;;;4976711;28;20491;-67
2021/06/02 13:33:03;;;;;;;4.50;3.07;;;;;;;;;;4976585;28;20902;-67
2021/06/02 13:35:29;;;;;;;3.93;3.50;;;;;;;;;;4977802;28;20840;-67
2021/06/02 13:37:56;;;;;;;4.50;3.50;;;;;;;;;;4970704;28;20487;-66
2021/06/02 13:40:28;;;;;;;5.97;3.83;;;;;;;;;;4981571;28;20755;-66
2021/06/02 13:43:04;;;;;;;3.73;3.40;;;;;;;;;;4973049;28;20494;-70
2021/06/02 13:45:38;;;;;;;3.97;3.53;;;;;;;;;;4969836;28;20462;-67
2021/06/02 13:48:19;;;;;;;4.30;3.90;;;;;;;;;;4971433;28;20455;-66
2021/06/02 13:50:46;;;;;;;3.77;3.47;;;;;;;;;;4967844;28;20462;-67
2021/06/02 13:53:12;;;;;;;3.67;3.23;;;;;;;;;;4976456;28;20470;-66
2021/06/02 13:55:39;;;;;;;4.40;4.00;;;;;;;;;;4983720;28;20493;-68
2021/06/02 13:58:14;;;;;;;3.80;3.50;;;;;;;;;;4985053;28;20493;-67
2021/06/02 14:00:41;;;;;;;3.70;3.40;;;;;;;;;;4972521;28;20458;-67
2021/06/02 14:03:08;;;;;;;4.13;3.73;;;;;;;;;;4982294;28;20557;-67
2021/06/02 14:05:34;;;;;;;3.40;3.10;;;;;;;;;;4973662;28;20521;-68
2021/06/02 14:08:01;;;;;;;3.80;3.50;;;;;;;;;;4974935;28;20978;-67
2021/06/02 14:10:28;;;;;;;3.93;3.53;;;;;;;;;;4974161;28;20463;-68
2021/06/02 14:12:58;;;;;;;3.97;3.67;;;;;;;;;;4975155;28;21057;-67
2021/06/02 14:15:26;;;;;;;3.83;3.53;;;;;;;;;;4973699;28;20467;-67
2021/06/02 14:17:53;;;;;;;3.40;3.10;;;;;;;;;;4975300;28;20502;-67
2021/06/02 14:20:20;;;;;;;4.60;3.60;;;;;;;;;;4974720;28;20468;-67
2021/06/02 14:22:46;;;;;;;3.50;3.20;;;;;;;;;;4976127;28;20562;-67
2021/06/02 14:25:17;;;;;;;3.53;3.23;;;;;;;;;;4972370;28;20525;-67
2021/06/02 14:27:45;;;;;;;3.93;3.00;;;;;;;;;;4969168;28;21037;-67
2021/06/02 14:30:15;;;;;;;3.47;3.03;;;;;;;;;;4989207;28;20459;-67
2021/06/02 14:32:43;;;;;;;3.70;3.30;;;;;;;;;;4984259;28;20844;-67
2021/06/02 14:35:10;;;;;;;3.63;2.90;;;;;;;;;;4990010;28;20464;-70
2021/06/02 14:37:42;;;;;;;4.03;3.53;;;;;;;;;;4986241;28;20469;-68
2021/06/02 14:40:09;;;;;;;4.30;3.50;;;;;;;;;;4989998;28;20470;-67
2021/06/02 14:42:36;;;;;;;5.47;3.30;;;;;;;;;;4983811;28;20470;-67
2021/06/02 14:45:03;;;;;;;3.50;3.00;;;;;;;;;;4994219;28;20690;-68
2021/06/02 14:47:29;;;;;;;3.23;2.93;;;;;;;;;;4976437;28;20504;-68
2021/06/02 14:49:58;;;;;;;3.70;3.40;;;;;;;;;;4974469;28;20467;-67
2021/06/02 14:52:28;;;;;;;4.60;3.67;;;;;;;;;;4975298;28;20849;-68
2021/06/02 14:54:55;;;;;;;5.30;2.97;;;;;;;;;;4974858;28;20547;-68
2021/06/02 14:57:21;;;;;;;3.40;3.10;;;;;;;;;;4987702;28;20462;-67
2021/06/02 14:59:48;;;;;;;3.30;3.00;;;;;;;;;;4976402;28;20479;-67
2021/06/02 15:02:15;;;;;;;3.43;3.17;;;;;;;;;;4974261;28;20463;-68
2021/06/02 15:04:41;;;;;;;3.70;3.40;;;;;;;;;;4970555;28;20472;-69
2021/06/02 15:07:09;;;;;;;4.17;3.10;;;;;;;;;;4974051;28;20478;-68